sensor_id;sensor_type;location;lat;lon;timestamp;pressure;altitude;pressure_sealevel;temperature;humidity
13734;BME280;43298;52.560;13.508;2023-05-10T00:01:07;100689.59;;;11.88;100.00
13734;BME280;43298;52.560;13.508;2023-05-10T00:03:33;100684.56;;;11.85;100.00
13734;BME280;43298;52.560;13.508;2023-05-10T00:05:59;100679.19;;;11.71;100.00
13734;BME280;43298;52.560;13.508;2023-05-10T00:08:25;100681.03;;;11.69;100.00
13734;BME280;43298;52.560;13.508;2023-05-10T00:10:51;100679.66;;;11.62;100.00
13734;BME280;43298;52.560;13.508;2023-05-10T00:13:17;100673.47;;;11.64;100.00
13734;BME280;43298;52.560;13.508;2023-05-10T00:15:43;100678.84;;;11.60;100.00
13734;BME280;43298;52.560;13.508;2023-05-10T00:18:09;100674.09;;;11.51;100.00
13734;BME280;43298;52.560;13.508;2023-05-10T00:20:35;100673.66;;;11.60;100.00
13734;BME280;43298;52.560;13.508;2023-05-10T00:23:00;100675.56;;;11.56;100.00
13734;BME280;43298;52.560;13.508;2023-05-10T00:25:26;100662.97;;;11.49;100.00
13734;BME280;43298;52.560;13.508;2023-05-10T00:27:52;100666.19;;;11.54;100.00
13734;BME280;43298;52.560;13.508;2023-05-10T00:30:20;100664.16;;;11.60;100.00
13734;BME280;43298;52.560;13.508;2023-05-10T00:32:46;100656.19;;;11.65;100.00
13734;BME280;43298;52.560;13.508;2023-05-10T00:35:13;100651.00;;;11.65;100.00
13734;BME280;43298;52.560;13.508;2023-05-10T00:37:39;100651.75;;;11.67;100.00
13734;BME280;43298;52.560;13.508;2023-05-10T00:40:06;100651.09;;;11.63;100.00
13734;BME280;43298;52.560;13.508;2023-05-10T00:42:32;100639.09;;;11.61;100.00
13734;BME280;43298;52.560;13.508;2023-05-10T00:44:58;100634.94;;;11.57;100.00
13734;BME280;43298;52.560;13.508;2023-05-10T00:47:24;100639.59;;;11.50;100.00
13734;BME280;43298;52.560;13.508;2023-05-10T00:49:50;100642.56;;;11.60;100.00
13734;BME280;43298;52.560;13.508;2023-05-10T00:52:17;100638.44;;;11.56;100.00
13734;BME280;43298;52.560;13.508;2023-05-10T00:54:42;100636.22;;;11.48;100.00
13734;BME280;43298;52.560;13.508;2023-05-10T00:57:08;100634.75;;;11.43;100.00
13734;BME280;43298;52.560;13.508;2023-05-10T00:59:34;100630.22;;;11.48;100.00
13734;BME280;43298;52.560;13.508;2023-05-10T01:02:01;100633.94;;;11.42;100.00
13734;BME280;43298;52.560;13.508;2023-05-10T01:04:27;100626.38;;;11.38;100.00
13734;BME280;43298;52.560;13.508;2023-05-10T01:06:54;100624.56;;;11.40;100.00
13734;BME280;43298;52.560;13.508;2023-05-10T01:09:21;100623.09;;;11.34;100.00
13734;BME280;43298;52.560;13.508;2023-05-10T01:11:47;100622.66;;;11.25;100.00
13734;BME280;43298;52.560;13.508;2023-05-10T01:14:15;100610.75;;;11.39;100.00
13734;BME280;43298;52.560;13.508;2023-05-10T01:16:44;100612.03;;;11.31;100.00
13734;BME280;43298;52.560;13.508;2023-05-10T01:19:24;100614.81;;;11.26;100.00
13734;BME280;43298;52.560;13.508;2023-05-10T01:31:06;100600.28;;;11.24;100.00
13734;BME280;43298;52.560;13.508;2023-05-10T01:34:08;100599.81;;;11.16;100.00
13734;BME280;43298;52.560;13.508;2023-05-10T01:36:52;100601.59;;;11.14;100.00
13734;BME280;43298;52.560;13.508;2023-05-10T01:39:29;100588.81;;;11.11;100.00
13734;BME280;43298;52.560;13.508;2023-05-10T01:42:17;100593.38;;;11.06;100.00
13734;BME280;43298;52.560;13.508;2023-05-10T01:45:16;100590.44;;;11.13;100.00
13734;BME280;43298;52.560;13.508;2023-05-10T01:47:50;100595.97;;;11.06;100.00
13734;BME280;43298;52.560;13.508;2023-05-10T01:50:28;100594.69;;;11.14;100.00
13734;BME280;43298;52.560;13.508;2023-05-10T01:52:57;100588.13;;;11.07;100.00
13734;BME280;43298;52.560;13.508;2023-05-10T01:55:32;100591.56;;;11.08;100.00
13734;BME280;43298;52.560;13.508;2023-05-10T01:58:09;100581.56;;;11.00;100.00
13734;BME280;43298;52.560;13.508;2023-05-10T02:00:36;100588.31;;;11.03;100.00
13734;BME280;43298;52.560;13.508;2023-05-10T02:03:07;100591.56;;;10.89;100.00
13734;BME280;43298;52.560;13.508;2023-05-10T02:05:34;100593.28;;;10.89;100.00
13734;BME280;43298;52.560;13.508;2023-05-10T02:08:05;100587.56;;;11.01;100.00
13734;BME280;43298;52.560;13.508;2023-05-10T02:10:35;100580.28;;;10.90;100.00
13734;BME280;43298;52.560;13.508;2023-05-10T02:13:03;100581.81;;;10.94;100.00
13734;BME280;43298;52.560;13.508;2023-05-10T02:15:30;100589.88;;;10.88;100.00
13734;BME280;43298;52.560;13.508;2023-05-10T02:17:58;100579.81;;;10.82;100.00
13734;BME280;43298;52.560;13.508;2023-05-10T02:20:26;100585.72;;;10.84;100.00
13734;BME280;43298;52.560;13.508;2023-05-10T02:22:55;100581.59;;;10.80;100.00
13734;BME280;43298;52.560;13.508;2023-05-10T02:25:23;100577.47;;;10.76;100.00
13734;BME280;43298;52.560;13.508;2023-05-10T02:27:49;100571.50;;;10.76;100.00
13734;BME280;43298;52.560;13.508;2023-05-10T02:30:16;100574.22;;;10.73;100.00
13734;BME280;43298;52.560;13.508;2023-05-10T02:32:44;100570.91;;;10.69;100.00
13734;BME280;43298;52.560;13.508;2023-05-10T02:35:11;100570.91;;;10.69;100.00
13734;BME280;43298;52.560;13.508;2023-05-10T02:37:38;100574.81;;;10.78;100.00
13734;BME280;43298;52.560;13.508;2023-05-10T02:40:06;100576.78;;;10.73;100.00
13734;BME280;43298;52.560;13.508;2023-05-10T02:42:36;100572.16;;;10.61;100.00
13734;BME280;43298;52.560;13.508;2023-05-10T02:45:09;100569.38;;;10.65;100.00
13734;BME280;43298;52.560;13.508;2023-05-10T02:47:36;100563.63;;;10.59;100.00
13734;BME280;43298;52.560;13.508;2023-05-10T02:50:02;100565.09;;;10.64;100.00
13734;BME280;43298;52.560;13.508;2023-05-10T02:52:42;100566.22;;;10.59;100.00
13734;BME280;43298;52.560;13.508;2023-05-10T02:55:12;100568.31;;;10.51;100.00
13734;BME280;43298;52.560;13.508;2023-05-10T02:57:56;100569.06;;;10.53;100.00
13734;BME280;43298;52.560;13.508;2023-05-10T03:00:23;100570.47;;;10.60;100.00
13734;BME280;43298;52.560;13.508;2023-05-10T03:02:49;100566.78;;;10.65;100.00
13734;BME280;43298;52.560;13.508;2023-05-10T03:05:15;100575.59;;;10.61;100.00
13734;BME280;43298;52.560;13.508;2023-05-10T03:07:41;100572.16;;;10.61;100.00
13734;BME280;43298;52.560;13.508;2023-05-10T03:10:07;100571.53;;;10.56;100.00
13734;BME280;43298;52.560;13.508;2023-05-10T03:13:11;100568.22;;;10.52;100.00
13734;BME280;43298;52.560;13.508;2023-05-10T03:15:47;100567.78;;;10.43;100.00
13734;BME280;43298;52.560;13.508;2023-05-10T03:18:31;100565.00;;;10.47;100.00
13734;BME280;43298;52.560;13.508;2023-05-10T03:21:04;100569.31;;;10.47;100.00
13734;BME280;43298;52.560;13.508;2023-05-10T03:23:44;100566.00;;;10.45;100.00
13734;BME280;43298;52.560;13.508;2023-05-10T03:26:20;100565.19;;;10.43;100.00
13734;BME280;43298;52.560;13.508;2023-05-10T03:28:50;100563.41;;;10.45;100.00
13734;BME280;43298;52.560;13.508;2023-05-10T03:31:17;100567.78;;;10.43;100.00
13734;BME280;43298;52.560;13.508;2023-05-10T03:33:48;100566.00;;;10.45;100.00
13734;BME280;43298;52.560;13.508;2023-05-10T03:36:14;100566.25;;;10.39;100.00
13734;BME280;43298;52.560;13.508;2023-05-10T03:38:40;100562.97;;;10.35;100.00
13734;BME280;43298;52.560;13.508;2023-05-10T03:41:05;100564.13;;;10.28;100.00
13734;BME280;43298;52.560;13.508;2023-05-10T03:43:31;100561.75;;;10.24;100.00
13734;BME280;43298;52.560;13.508;2023-05-10T03:45:57;100561.75;;;10.24;100.00
13734;BME280;43298;52.560;13.508;2023-05-10T03:48:23;100554.78;;;10.26;100.00
13734;BME280;43298;52.560;13.508;2023-05-10T03:50:48;100555.34;;;10.32;100.00
13734;BME280;43298;52.560;13.508;2023-05-10T03:53:15;100553.88;;;10.27;100.00
13734;BME280;43298;52.560;13.508;2023-05-10T03:55:41;100560.50;;;10.32;100.00
13734;BME280;43298;52.560;13.508;2023-05-10T03:58:07;100557.88;;;10.34;100.00
13734;BME280;43298;52.560;13.508;2023-05-10T04:00:35;100562.19;;;10.33;100.00
13734;BME280;43298;52.560;13.508;2023-05-10T04:03:01;100558.75;;;10.33;100.00
13734;BME280;43298;52.560;13.508;2023-05-10T04:05:27;100566.13;;;10.42;100.00
13734;BME280;43298;52.560;13.508;2023-05-10T04:07:53;100555.72;;;10.43;100.00
13734;BME280;43298;52.560;13.508;2023-05-10T04:10:19;100546.72;;;10.52;100.00
13734;BME280;43298;52.560;13.508;2023-05-10T04:12:44;100554.41;;;10.53;100.00
13734;BME280;43298;52.560;13.508;2023-05-10T04:15:10;100552.56;;;10.55;100.00
13734;BME280;43298;52.560;13.508;2023-05-10T04:17:36;100553.09;;;10.63;100.00
13734;BME280;43298;52.560;13.508;2023-05-10T04:20:03;100549.78;;;10.60;100.00
13734;BME280;43298;52.560;13.508;2023-05-10T04:22:30;100551.19;;;10.67;100.00
13734;BME280;43298;52.560;13.508;2023-05-10T04:24:55;100555.06;;;10.77;100.00
13734;BME280;43298;52.560;13.508;2023-05-10T04:27:21;100553.28;;;10.77;100.00
13734;BME280;43298;52.560;13.508;2023-05-10T04:29:47;100552.28;;;10.81;100.00
13734;BME280;43298;52.560;13.508;2023-05-10T04:32:13;100553.94;;;10.82;100.00
13734;BME280;43298;52.560;13.508;2023-05-10T04:34:41;100553.50;;;10.91;100.00
13734;BME280;43298;52.560;13.508;2023-05-10T04:37:07;100556.59;;;10.99;100.00
13734;BME280;43298;52.560;13.508;2023-05-10T04:39:33;100547.84;;;11.02;100.00
13734;BME280;43298;52.560;13.508;2023-05-10T04:41:58;100554.41;;;11.09;100.00
13734;BME280;43298;52.560;13.508;2023-05-10T04:44:24;100543.78;;;11.15;100.00
13734;BME280;43298;52.560;13.508;2023-05-10T04:46:50;100553.00;;;11.20;100.00
13734;BME280;43298;52.560;13.508;2023-05-10T04:49:16;100541.47;;;11.27;100.00
13734;BME280;43298;52.560;13.508;2023-05-10T04:51:42;100547.09;;;11.35;100.00
13734;BME280;43298;52.560;13.508;2023-05-10T04:54:08;100548.41;;;11.44;100.00
13734;BME280;43298;52.560;13.508;2023-05-10T04:56:33;100546.44;;;11.49;100.00
13734;BME280;43298;52.560;13.508;2023-05-10T04:58:59;100541.56;;;11.60;100.00
13734;BME280;43298;52.560;13.508;2023-05-10T05:01:25;100546.56;;;11.64;100.00
13734;BME280;43298;52.560;13.508;2023-05-10T05:03:51;100539.03;;;11.77;100.00
13734;BME280;43298;52.560;13.508;2023-05-10T05:06:18;100537.97;;;11.81;100.00
13734;BME280;43298;52.560;13.508;2023-05-10T05:08:44;100535.00;;;11.88;100.00
13734;BME280;43298;52.560;13.508;2023-05-10T05:11:10;100538.41;;;12.06;100.00
13734;BME280;43298;52.560;13.508;2023-05-10T05:13:35;100535.19;;;12.18;100.00
13734;BME280;43298;52.560;13.508;2023-05-10T05:16:02;100536.38;;;12.28;100.00
13734;BME280;43298;52.560;13.508;2023-05-10T05:18:28;100534.06;;;12.39;100.00
13734;BME280;43298;52.560;13.508;2023-05-10T05:20:54;100534.75;;;12.43;100.00
13734;BME280;43298;52.560;13.508;2023-05-10T05:23:20;100537.38;;;12.58;100.00
13734;BME280;43298;52.560;13.508;2023-05-10T05:25:46;100531.13;;;12.62;100.00
13734;BME280;43298;52.560;13.508;2023-05-10T05:28:12;100528.53;;;12.62;100.00
13734;BME280;43298;52.560;13.508;2023-05-10T05:30:38;100526.75;;;12.78;100.00
13734;BME280;43298;52.560;13.508;2023-05-10T05:33:04;100532.31;;;12.88;100.00
13734;BME280;43298;52.560;13.508;2023-05-10T05:35:29;100531.44;;;13.04;100.00
13734;BME280;43298;52.560;13.508;2023-05-10T05:37:55;100533.16;;;13.19;100.00
13734;BME280;43298;52.560;13.508;2023-05-10T05:40:21;100525.63;;;13.30;100.00
13734;BME280;43298;52.560;13.508;2023-05-10T05:42:47;100533.00;;;13.38;100.00
13734;BME280;43298;52.560;13.508;2023-05-10T05:45:13;100524.56;;;13.48;100.00
13734;BME280;43298;52.560;13.508;2023-05-10T05:47:39;100530.75;;;13.61;100.00
13734;BME280;43298;52.560;13.508;2023-05-10T05:50:06;100529.69;;;13.79;99.79
13734;BME280;43298;52.560;13.508;2023-05-10T05:52:32;100522.63;;;13.81;98.04
13734;BME280;43298;52.560;13.508;2023-05-10T05:54:58;100519.34;;;13.93;98.70
13734;BME280;43298;52.560;13.508;2023-05-10T05:57:23;100523.59;;;13.94;97.07
13734;BME280;43298;52.560;13.508;2023-05-10T05:59:49;100526.41;;;14.05;96.17
13734;BME280;43298;52.560;13.508;2023-05-10T06:02:15;100513.59;;;14.16;94.77
13734;BME280;43298;52.560;13.508;2023-05-10T06:04:41;100520.50;;;14.45;94.47
13734;BME280;43298;52.560;13.508;2023-05-10T06:07:06;100518.06;;;14.84;93.12
13734;BME280;43298;52.560;13.508;2023-05-10T06:09:32;100526.25;;;15.46;90.36
13734;BME280;43298;52.560;13.508;2023-05-10T06:11:58;100524.50;;;15.98;87.58
13734;BME280;43298;52.560;13.508;2023-05-10T06:14:24;100526.81;;;16.40;84.61
13734;BME280;43298;52.560;13.508;2023-05-10T06:16:49;100527.03;;;16.98;82.83
13734;BME280;43298;52.560;13.508;2023-05-10T06:19:15;100526.91;;;16.76;80.73
13734;BME280;43298;52.560;13.508;2023-05-10T06:21:41;100525.59;;;16.94;80.47
13734;BME280;43298;52.560;13.508;2023-05-10T06:24:07;100518.09;;;17.13;80.14
13734;BME280;43298;52.560;13.508;2023-05-10T06:26:33;100527.41;;;17.40;79.08
13734;BME280;43298;52.560;13.508;2023-05-10T06:28:59;100509.06;;;17.29;77.87
13734;BME280;43298;52.560;13.508;2023-05-10T06:31:25;100524.56;;;17.20;78.66
13734;BME280;43298;52.560;13.508;2023-05-10T06:33:51;100519.41;;;17.31;78.53
13734;BME280;43298;52.560;13.508;2023-05-10T06:36:17;100524.75;;;17.29;77.85
13734;BME280;43298;52.560;13.508;2023-05-10T06:38:43;100520.72;;;17.13;77.78
13734;BME280;43298;52.560;13.508;2023-05-10T06:41:09;100523.38;;;17.00;78.68
13734;BME280;43298;52.560;13.508;2023-05-10T06:43:34;100521.94;;;17.20;78.12
13734;BME280;43298;52.560;13.508;2023-05-10T06:46:00;100526.63;;;17.27;79.17
13734;BME280;43298;52.560;13.508;2023-05-10T06:48:26;100503.31;;;17.82;76.95
13734;BME280;43298;52.560;13.508;2023-05-10T06:50:52;100512.00;;;17.72;76.48
13734;BME280;43298;52.560;13.508;2023-05-10T06:53:18;100507.94;;;17.68;76.19
13734;BME280;43298;52.560;13.508;2023-05-10T06:55:43;100514.97;;;17.44;76.31
13734;BME280;43298;52.560;13.508;2023-05-10T06:58:09;100516.50;;;17.70;76.19
13734;BME280;43298;52.560;13.508;2023-05-10T07:00:35;100517.06;;;17.97;76.06
13734;BME280;43298;52.560;13.508;2023-05-10T07:03:04;100517.84;;;17.75;75.44
13734;BME280;43298;52.560;13.508;2023-05-10T07:05:30;100518.25;;;18.04;74.85
13734;BME280;43298;52.560;13.508;2023-05-10T07:07:56;100523.28;;;18.29;75.74
13734;BME280;43298;52.560;13.508;2023-05-10T07:10:21;100509.25;;;18.30;73.72
13734;BME280;43298;52.560;13.508;2023-05-10T07:12:47;100511.31;;;18.60;73.76
13734;BME280;43298;52.560;13.508;2023-05-10T07:15:13;100510.53;;;18.14;75.08
13734;BME280;43298;52.560;13.508;2023-05-10T07:17:39;100506.25;;;18.13;75.27
13734;BME280;43298;52.560;13.508;2023-05-10T07:20:05;100506.63;;;18.19;75.36
13734;BME280;43298;52.560;13.508;2023-05-10T07:22:31;100506.28;;;18.35;74.65
13734;BME280;43298;52.560;13.508;2023-05-10T07:24:57;100514.16;;;18.57;73.88
13734;BME280;43298;52.560;13.508;2023-05-10T07:27:23;100505.22;;;18.48;73.33
13734;BME280;43298;52.560;13.508;2023-05-10T07:29:49;100512.63;;;18.43;73.51
13734;BME280;43298;52.560;13.508;2023-05-10T07:32:14;100509.28;;;18.85;73.41
13734;BME280;43298;52.560;13.508;2023-05-10T07:34:40;100520.94;;;18.81;72.64
13734;BME280;43298;52.560;13.508;2023-05-10T07:37:06;100518.25;;;19.14;72.73
13734;BME280;43298;52.560;13.508;2023-05-10T07:39:33;100511.03;;;19.70;71.33
13734;BME280;43298;52.560;13.508;2023-05-10T07:41:58;100517.47;;;19.45;71.11
13734;BME280;43298;52.560;13.508;2023-05-10T07:44:24;100514.22;;;19.53;69.53
13734;BME280;43298;52.560;13.508;2023-05-10T07:46:50;100512.06;;;19.04;70.08
13734;BME280;43298;52.560;13.508;2023-05-10T07:49:16;100508.56;;;19.37;70.12
13734;BME280;43298;52.560;13.508;2023-05-10T07:51:42;100507.69;;;19.47;68.79
13734;BME280;43298;52.560;13.508;2023-05-10T07:54:08;100507.31;;;19.72;70.34
13734;BME280;43298;52.560;13.508;2023-05-10T07:56:34;100507.72;;;20.09;69.08
13734;BME280;43298;52.560;13.508;2023-05-10T07:59:02;100501.78;;;20.27;69.11
13734;BME280;43298;52.560;13.508;2023-05-10T08:01:34;100494.97;;;19.63;69.61
13734;BME280;43298;52.560;13.508;2023-05-10T08:04:00;100494.97;;;19.84;68.31
13734;BME280;43298;52.560;13.508;2023-05-10T08:06:26;100504.91;;;20.01;68.09
13734;BME280;43298;52.560;13.508;2023-05-10T08:08:53;100507.13;;;19.85;68.72
13734;BME280;43298;52.560;13.508;2023-05-10T08:11:23;100498.19;;;19.87;68.05
13734;BME280;43298;52.560;13.508;2023-05-10T08:13:50;100502.97;;;19.82;67.17
13734;BME280;43298;52.560;13.508;2023-05-10T08:16:17;100504.22;;;20.19;67.57
13734;BME280;43298;52.560;13.508;2023-05-10T08:18:44;100510.28;;;19.99;67.27
13734;BME280;43298;52.560;13.508;2023-05-10T08:21:10;100507.72;;;20.59;66.93
13734;BME280;43298;52.560;13.508;2023-05-10T08:23:37;100497.53;;;20.15;66.59
13734;BME280;43298;52.560;13.508;2023-05-10T08:26:03;100513.38;;;20.64;65.68
13734;BME280;43298;52.560;13.508;2023-05-10T08:28:28;100500.59;;;20.81;66.14
13734;BME280;43298;52.560;13.508;2023-05-10T08:30:55;100504.97;;;20.71;65.58
13734;BME280;43298;52.560;13.508;2023-05-10T08:33:21;100491.34;;;20.86;65.26
13734;BME280;43298;52.560;13.508;2023-05-10T08:35:46;100495.00;;;21.33;64.61
13734;BME280;43298;52.560;13.508;2023-05-10T08:38:12;100501.38;;;21.21;64.89
13734;BME280;43298;52.560;13.508;2023-05-10T08:40:42;100501.84;;;20.46;64.84
13734;BME280;43298;52.560;13.508;2023-05-10T08:43:11;100506.78;;;21.38;65.82
13734;BME280;43298;52.560;13.508;2023-05-10T08:45:40;100500.69;;;21.19;64.72
13734;BME280;43298;52.560;13.508;2023-05-10T08:48:08;100499.94;;;20.98;63.84
13734;BME280;43298;52.560;13.508;2023-05-10T08:50:37;100496.00;;;21.13;64.44
13734;BME280;43298;52.560;13.508;2023-05-10T08:53:14;100494.47;;;21.39;64.49
13734;BME280;43298;52.560;13.508;2023-05-10T08:55:41;100504.72;;;21.51;61.34
13734;BME280;43298;52.560;13.508;2023-05-10T08:58:09;100505.41;;;21.34;62.26
13734;BME280;43298;52.560;13.508;2023-05-10T09:00:36;100505.72;;;21.41;62.14
13734;BME280;43298;52.560;13.508;2023-05-10T09:03:05;100503.56;;;22.11;62.36
13734;BME280;43298;52.560;13.508;2023-05-10T09:05:31;100496.84;;;21.89;62.11
13734;BME280;43298;52.560;13.508;2023-05-10T09:07:57;100497.50;;;22.37;61.30
13734;BME280;43298;52.560;13.508;2023-05-10T09:10:26;100496.88;;;22.62;60.55
13734;BME280;43298;52.560;13.508;2023-05-10T09:12:54;100508.78;;;22.66;60.00
13734;BME280;43298;52.560;13.508;2023-05-10T09:15:21;100506.16;;;22.20;59.73
13734;BME280;43298;52.560;13.508;2023-05-10T09:17:49;100506.13;;;22.76;59.28
13734;BME280;43298;52.560;13.508;2023-05-10T09:20:15;100511.13;;;22.33;59.83
13734;BME280;43298;52.560;13.508;2023-05-10T09:22:43;100507.63;;;22.42;59.72
13734;BME280;43298;52.560;13.508;2023-05-10T09:25:16;100504.13;;;22.51;59.00
13734;BME280;43298;52.560;13.508;2023-05-10T09:27:46;100514.47;;;22.71;59.10
13734;BME280;43298;52.560;13.508;2023-05-10T09:30:23;100505.72;;;22.71;59.48
13734;BME280;43298;52.560;13.508;2023-05-10T09:32:50;100500.34;;;22.90;58.54
13734;BME280;43298;52.560;13.508;2023-05-10T09:35:22;100509.16;;;22.98;58.99
13734;BME280;43298;52.560;13.508;2023-05-10T09:37:51;100508.81;;;23.11;56.55
13734;BME280;43298;52.560;13.508;2023-05-10T09:40:22;100512.72;;;22.89;56.84
13734;BME280;43298;52.560;13.508;2023-05-10T09:43:05;100509.44;;;23.05;58.43
13734;BME280;43298;52.560;13.508;2023-05-10T09:45:34;100519.91;;;22.70;59.34
13734;BME280;43298;52.560;13.508;2023-05-10T09:48:02;100519.56;;;22.82;58.24
13734;BME280;43298;52.560;13.508;2023-05-10T09:50:29;100508.22;;;22.99;58.09
13734;BME280;43298;52.560;13.508;2023-05-10T09:52:59;100504.09;;;23.85;56.67
13734;BME280;43298;52.560;13.508;2023-05-10T09:55:46;100508.13;;;23.54;57.30
13734;BME280;43298;52.560;13.508;2023-05-10T09:58:15;100507.69;;;23.84;57.15
13734;BME280;43298;52.560;13.508;2023-05-10T10:00:43;100510.38;;;23.31;56.42
13734;BME280;43298;52.560;13.508;2023-05-10T10:03:15;100513.41;;;23.54;56.88
13734;BME280;43298;52.560;13.508;2023-05-10T10:05:43;100517.06;;;23.08;56.98
13734;BME280;43298;52.560;13.508;2023-05-10T10:08:10;100512.38;;;23.19;56.75
13734;BME280;43298;52.560;13.508;2023-05-10T10:10:36;100516.34;;;23.06;57.41
13734;BME280;43298;52.560;13.508;2023-05-10T10:13:02;100508.16;;;23.79;56.89
13734;BME280;43298;52.560;13.508;2023-05-10T10:15:28;100503.38;;;24.00;55.62
13734;BME280;43298;52.560;13.508;2023-05-10T10:17:54;100509.78;;;23.72;56.15
13734;BME280;43298;52.560;13.508;2023-05-10T10:20:21;100515.72;;;24.43;55.62
13734;BME280;43298;52.560;13.508;2023-05-10T10:22:48;100507.53;;;24.28;55.17
13734;BME280;43298;52.560;13.508;2023-05-10T10:25:16;100499.72;;;23.76;54.99
13734;BME280;43298;52.560;13.508;2023-05-10T10:30:45;100499.66;;;24.36;55.80
13734;BME280;43298;52.560;13.508;2023-05-10T10:36:21;100497.59;;;24.22;55.26
13734;BME280;43298;52.560;13.508;2023-05-10T10:41:34;100484.44;;;24.30;54.25
13734;BME280;43298;52.560;13.508;2023-05-10T10:44:22;100495.91;;;24.80;54.42
13734;BME280;43298;52.560;13.508;2023-05-10T10:47:21;100492.34;;;24.97;54.22
13734;BME280;43298;52.560;13.508;2023-05-10T10:52:41;100496.75;;;24.47;54.39
13734;BME280;43298;52.560;13.508;2023-05-10T10:55:18;100496.31;;;25.01;53.35
13734;BME280;43298;52.560;13.508;2023-05-10T10:57:51;100499.97;;;25.16;53.62
13734;BME280;43298;52.560;13.508;2023-05-10T11:03:10;100490.81;;;24.87;51.45
13734;BME280;43298;52.560;13.508;2023-05-10T11:05:46;100491.72;;;25.11;50.85
13734;BME280;43298;52.560;13.508;2023-05-10T11:08:34;100496.06;;;24.71;52.36
13734;BME280;43298;52.560;13.508;2023-05-10T11:11:08;100493.91;;;25.48;50.49
13734;BME280;43298;52.560;13.508;2023-05-10T11:13:45;100494.44;;;25.43;49.89
13734;BME280;43298;52.560;13.508;2023-05-10T11:16:24;100506.41;;;26.50;48.87
13734;BME280;43298;52.560;13.508;2023-05-10T11:21:27;100495.09;;;25.29;50.50
13734;BME280;43298;52.560;13.508;2023-05-10T11:23:55;100493.75;;;25.33;50.73
13734;BME280;43298;52.560;13.508;2023-05-10T11:26:30;100487.81;;;25.95;49.74
13734;BME280;43298;52.560;13.508;2023-05-10T11:28:56;100490.44;;;26.12;50.24
13734;BME280;43298;52.560;13.508;2023-05-10T11:31:24;100491.06;;;26.30;49.68
13734;BME280;43298;52.560;13.508;2023-05-10T11:33:57;100499.97;;;26.45;49.05
13734;BME280;43298;52.560;13.508;2023-05-10T11:36:26;100495.06;;;25.53;50.32
13734;BME280;43298;52.560;13.508;2023-05-10T11:38:53;100489.13;;;26.08;49.00
13734;BME280;43298;52.560;13.508;2023-05-10T11:41:20;100491.78;;;26.62;49.38
13734;BME280;43298;52.560;13.508;2023-05-10T11:43:54;100494.88;;;26.74;48.50
13734;BME280;43298;52.560;13.508;2023-05-10T11:46:23;100491.91;;;26.14;48.84
13734;BME280;43298;52.560;13.508;2023-05-10T11:48:52;100488.13;;;26.09;48.65
13734;BME280;43298;52.560;13.508;2023-05-10T11:51:23;100500.53;;;25.92;48.67
13734;BME280;43298;52.560;13.508;2023-05-10T11:53:52;100491.94;;;25.58;48.36
13734;BME280;43298;52.560;13.508;2023-05-10T11:56:19;100482.69;;;26.02;47.76
13734;BME280;43298;52.560;13.508;2023-05-10T11:58:52;100488.94;;;26.72;47.75
13734;BME280;43298;52.560;13.508;2023-05-10T12:01:18;100489.47;;;26.51;48.05
13734;BME280;43298;52.560;13.508;2023-05-10T12:03:44;100491.59;;;25.85;48.45
13734;BME280;43298;52.560;13.508;2023-05-10T12:06:11;100481.81;;;25.85;49.26
13734;BME280;43298;52.560;13.508;2023-05-10T12:08:36;100490.78;;;25.76;48.55
13734;BME280;43298;52.560;13.508;2023-05-10T12:11:10;100497.31;;;26.45;49.26
13734;BME280;43298;52.560;13.508;2023-05-10T12:13:40;100500.59;;;26.55;48.57
13734;BME280;43298;52.560;13.508;2023-05-10T12:16:32;100483.13;;;26.14;48.16
13734;BME280;43298;52.560;13.508;2023-05-10T12:19:00;100502.56;;;26.69;48.60
13734;BME280;43298;52.560;13.508;2023-05-10T12:21:28;100497.47;;;26.43;47.10
13734;BME280;43298;52.560;13.508;2023-05-10T12:24:01;100495.69;;;26.28;47.36
13734;BME280;43298;52.560;13.508;2023-05-10T12:26:28;100494.75;;;26.67;47.21
13734;BME280;43298;52.560;13.508;2023-05-10T12:29:11;100491.59;;;25.69;48.04
13734;BME280;43298;52.560;13.508;2023-05-10T12:32:06;100486.63;;;25.82;46.88
13734;BME280;43298;52.560;13.508;2023-05-10T12:34:34;100495.84;;;26.81;46.00
13734;BME280;43298;52.560;13.508;2023-05-10T12:37:02;100494.72;;;26.21;44.38
13734;BME280;43298;52.560;13.508;2023-05-10T12:39:43;100491.13;;;25.98;46.16
13734;BME280;43298;52.560;13.508;2023-05-10T12:42:10;100491.78;;;26.70;46.21
13734;BME280;43298;52.560;13.508;2023-05-10T12:44:36;100496.91;;;27.33;44.29
13734;BME280;43298;52.560;13.508;2023-05-10T12:47:02;100498.63;;;26.95;43.74
13734;BME280;43298;52.560;13.508;2023-05-10T12:49:28;100509.00;;;26.12;45.08
13734;BME280;43298;52.560;13.508;2023-05-10T12:51:53;100499.97;;;26.83;44.46
13734;BME280;43298;52.560;13.508;2023-05-10T12:54:19;100503.72;;;26.66;44.42
13734;BME280;43298;52.560;13.508;2023-05-10T12:56:45;100485.00;;;27.29;44.35
13734;BME280;43298;52.560;13.508;2023-05-10T12:59:11;100496.31;;;27.45;44.04
13734;BME280;43298;52.560;13.508;2023-05-10T13:01:36;100497.53;;;27.80;41.95
13734;BME280;43298;52.560;13.508;2023-05-10T13:04:02;100494.00;;;27.65;41.59
13734;BME280;43298;52.560;13.508;2023-05-10T13:06:28;100507.91;;;26.61;43.92
13734;BME280;43298;52.560;13.508;2023-05-10T13:08:54;100508.06;;;26.98;43.27